createdAt,value
2022-08-29T00:01:01.763Z,101601.22
2022-08-29T00:03:28.874Z,101604.16
2022-08-29T00:05:56.265Z,101597.13
2022-08-29T00:08:24.028Z,101599.88
2022-08-29T00:10:50.530Z,101599.81
2022-08-29T00:13:17.334Z,101607.84
2022-08-29T00:15:45.145Z,101610.50
2022-08-29T00:18:16.270Z,101612.34
2022-08-29T00:20:44.034Z,101607.06
2022-08-29T00:23:11.205Z,101607.06
2022-08-29T00:25:37.830Z,101603.59
2022-08-29T00:28:04.726Z,101604.47
2022-08-29T00:30:32.521Z,101610.53
2022-08-29T00:32:59.177Z,101610.50
2022-08-29T00:35:37.035Z,101608.69
2022-08-29T00:38:05.873Z,101595.75
2022-08-29T00:40:39.082Z,101604.47
2022-08-29T00:43:06.686Z,101615.88
2022-08-29T00:45:33.782Z,101612.53
2022-08-29T00:48:05.587Z,101610.75
2022-08-29T00:50:35.648Z,101608.06
2022-08-29T00:53:05.762Z,101618.63
2022-08-29T00:55:34.465Z,101607.13
2022-08-29T00:58:04.885Z,101607.16
2022-08-29T01:00:32.158Z,101613.25
2022-08-29T01:02:58.728Z,101611.50
2022-08-29T01:05:25.657Z,101611.50
2022-08-29T01:07:52.470Z,101608.88
2022-08-29T01:10:38.610Z,101607.97
2022-08-29T01:13:05.819Z,101611.47
2022-08-29T01:15:33.734Z,101607.13
2022-08-29T01:18:01.220Z,101600.97
2022-08-29T01:20:40.416Z,101602.75
2022-08-29T01:23:13.755Z,101613.28
2022-08-29T01:25:46.476Z,101613.31
2022-08-29T01:28:20.158Z,101617.66
2022-08-29T01:31:14.346Z,101615.81
2022-08-29T01:33:59.411Z,101619.44
2022-08-29T01:36:32.285Z,101623.00
2022-08-29T01:38:59.942Z,101614.16
2022-08-29T01:41:27.087Z,101610.66
2022-08-29T01:43:55.746Z,101614.16
2022-08-29T01:46:31.689Z,101613.38
2022-08-29T01:48:58.619Z,101612.47
2022-08-29T01:51:25.667Z,101614.22
2022-08-29T01:53:53.153Z,101610.72
2022-08-29T01:56:24.245Z,101612.31
2022-08-29T01:58:52.040Z,101609.03
2022-08-29T02:01:23.981Z,101614.25
2022-08-29T02:03:52.205Z,101620.44
2022-08-29T02:06:18.972Z,101615.22
2022-08-29T02:08:46.209Z,101618.78
2022-08-29T02:11:13.796Z,101616.22
2022-08-29T02:13:45.873Z,101611.69
2022-08-29T02:16:13.328Z,101610.91
2022-08-29T02:18:42.278Z,101617.09
2022-08-29T02:21:11.494Z,101617.13
2022-08-29T02:23:38.657Z,101613.50
2022-08-29T02:26:05.932Z,101620.53
2022-08-29T02:28:33.586Z,101621.44
2022-08-29T02:31:00.162Z,101623.16
2022-08-29T02:33:26.878Z,101610.88
2022-08-29T02:35:55.511Z,101615.34
2022-08-29T02:38:22.882Z,101623.22
2022-08-29T02:40:50.169Z,101622.41
2022-08-29T02:43:18.189Z,101623.22
2022-08-29T02:45:45.042Z,101632.06
2022-08-29T02:48:12.447Z,101624.13
2022-08-29T02:50:47.546Z,101633.78
2022-08-29T02:53:19.002Z,101626.78
2022-08-29T02:55:49.003Z,101636.44
2022-08-29T02:58:16.037Z,101636.41
2022-08-29T03:00:42.938Z,101632.91
2022-08-29T03:03:09.826Z,101624.97
2022-08-29T03:05:37.269Z,101638.13
2022-08-29T03:08:11.237Z,101637.28
2022-08-29T03:10:38.075Z,101650.44
2022-08-29T03:13:05.901Z,101653.13
2022-08-29T03:15:32.497Z,101646.81
2022-08-29T03:17:59.163Z,101651.25
2022-08-29T03:20:25.999Z,101650.47
2022-08-29T03:22:54.187Z,101644.31
2022-08-29T03:25:21.958Z,101648.69
2022-08-29T03:27:48.616Z,101655.66
2022-08-29T03:30:16.765Z,101654.00
2022-08-29T03:32:43.297Z,101660.16
2022-08-29T03:35:11.191Z,101657.50
2022-08-29T03:37:38.200Z,101661.81
2022-08-29T03:40:06.372Z,101656.56
2022-08-29T03:42:32.890Z,101653.81
2022-08-29T03:45:02.866Z,101654.78
2022-08-29T03:47:29.376Z,101654.75
2022-08-29T03:49:55.892Z,101660.97
2022-08-29T03:52:22.383Z,101654.88
2022-08-29T03:54:48.854Z,101656.53
2022-08-29T03:57:15.430Z,101656.44
2022-08-29T03:59:43.011Z,101658.34
2022-08-29T04:02:10.021Z,101663.63
2022-08-29T04:04:55.261Z,101665.41
2022-08-29T04:07:21.736Z,101656.56
2022-08-29T04:09:48.481Z,101656.47
2022-08-29T04:12:15.263Z,101660.00
2022-08-29T04:14:42.759Z,101660.91
2022-08-29T04:17:12.484Z,101660.97
2022-08-29T04:19:39.711Z,101663.66
2022-08-29T04:22:06.962Z,101661.91
2022-08-29T04:24:34.567Z,101658.25
2022-08-29T04:27:01.378Z,101658.31
2022-08-29T04:29:27.982Z,101663.66
2022-08-29T04:31:54.558Z,101666.31
2022-08-29T04:34:21.481Z,101665.41
2022-08-29T04:36:48.309Z,101667.16
2022-08-29T04:39:15.082Z,101658.38
2022-08-29T04:41:42.438Z,101658.38
2022-08-29T04:44:11.238Z,101658.38
2022-08-29T04:46:38.749Z,101666.28
2022-08-29T04:49:05.462Z,101668.91
2022-08-29T04:51:34.526Z,101665.41
2022-08-29T04:54:01.171Z,101673.31
2022-08-29T04:56:27.719Z,101684.75
2022-08-29T04:58:56.316Z,101675.94
2022-08-29T05:01:26.815Z,101685.59
2022-08-29T05:03:55.156Z,101689.09
2022-08-29T05:06:23.171Z,101680.31
2022-08-29T05:08:55.034Z,101695.25
2022-08-29T05:11:28.606Z,101697.91
2022-08-29T05:13:55.145Z,101691.75
2022-08-29T05:16:21.815Z,101695.19
2022-08-29T05:18:48.531Z,101688.25
2022-08-29T05:21:39.320Z,101690.84
2022-08-29T05:24:31.422Z,101695.25
2022-08-29T05:27:32.615Z,101697.03
2022-08-29T05:29:59.542Z,101703.19
2022-08-29T05:32:26.113Z,101708.41
2022-08-29T05:34:52.706Z,101720.72
2022-08-29T05:37:20.873Z,101717.19
2022-08-29T05:39:47.950Z,101720.72
2022-08-29T05:42:17.064Z,101716.34
2022-08-29T05:44:43.747Z,101724.25
2022-08-29T05:47:12.690Z,101725.13
2022-08-29T05:49:41.265Z,101728.66
2022-08-29T05:52:08.169Z,101725.97
2022-08-29T05:54:36.612Z,101725.97
2022-08-29T05:57:03.648Z,101726.00
2022-08-29T05:59:30.170Z,101722.50
2022-08-29T06:01:56.901Z,101725.09
2022-08-29T06:04:23.444Z,101720.72
2022-08-29T06:06:50.866Z,101730.38
2022-08-29T06:09:17.556Z,101730.41
2022-08-29T06:11:48.073Z,101723.31
2022-08-29T06:14:15.511Z,101737.44
2022-08-29T06:16:42.477Z,101733.91
2022-08-29T06:19:09.578Z,101733.81
2022-08-29T06:21:36.174Z,101730.28
2022-08-29T06:24:02.931Z,101732.06
2022-08-29T06:26:31.494Z,101727.53
2022-08-29T06:28:58.053Z,101732.03
2022-08-29T06:31:28.141Z,101731.25
2022-08-29T06:34:01.355Z,101738.19
2022-08-29T06:36:29.062Z,101733.81
2022-08-29T06:38:57.374Z,101730.38
2022-08-29T06:41:25.066Z,101744.38
2022-08-29T06:43:52.433Z,101740.91
2022-08-29T06:46:23.729Z,101744.41
2022-08-29T06:48:50.926Z,101742.56
2022-08-29T06:51:17.634Z,101749.69
2022-08-29T06:53:44.477Z,101745.94
2022-08-29T06:56:11.562Z,101757.34
2022-08-29T06:58:38.812Z,101757.34
2022-08-29T07:01:17.360Z,101748.56
2022-08-29T07:03:44.002Z,101751.81
2022-08-29T07:06:11.369Z,101748.22
2022-08-29T07:08:43.651Z,101764.09
2022-08-29T07:11:22.106Z,101764.94
2022-08-29T07:13:48.618Z,101771.31
2022-08-29T07:16:16.957Z,101770.19
2022-08-29T07:18:46.123Z,101763.09
2022-08-29T07:21:20.138Z,101772.13
2022-08-29T07:23:47.408Z,101765.19
2022-08-29T07:26:17.803Z,101768.69
2022-08-29T07:28:47.362Z,101771.38
2022-08-29T07:31:14.390Z,101770.56
2022-08-29T07:33:41.022Z,101777.53
2022-08-29T07:36:07.866Z,101777.13
2022-08-29T07:38:34.718Z,101785.31
2022-08-29T07:41:06.208Z,101781.94
2022-08-29T07:43:33.454Z,101781.06
2022-08-29T07:46:21.513Z,101777.56
2022-08-29T07:48:48.637Z,101773.00
2022-08-29T07:51:18.034Z,101775.50
2022-08-29T07:53:45.562Z,101783.63
2022-08-29T07:56:18.401Z,101778.00
2022-08-29T07:58:45.233Z,101780.34
2022-08-29T08:01:21.319Z,101785.41
2022-08-29T08:03:50.163Z,101786.16
2022-08-29T08:06:18.183Z,101778.16
2022-08-29T08:08:44.791Z,101775.13
2022-08-29T08:11:11.371Z,101773.00
2022-08-29T08:13:38.153Z,101786.28
2022-08-29T08:16:16.706Z,101779.28
2022-08-29T08:18:44.236Z,101788.66
2022-08-29T08:21:11.584Z,101792.69
2022-08-29T08:23:38.954Z,101796.22
2022-08-29T08:26:06.215Z,101788.16
2022-08-29T08:28:32.836Z,101791.00
2022-08-29T08:31:05.068Z,101793.72
2022-08-29T08:33:34.961Z,101793.25
2022-08-29T08:36:01.865Z,101801.81
2022-08-29T08:38:28.414Z,101804.28
2022-08-29T08:41:01.179Z,101797.69
2022-08-29T08:43:37.759Z,101806.69
2022-08-29T08:46:04.361Z,101812.09
2022-08-29T08:48:37.246Z,101809.28
2022-08-29T08:51:07.880Z,101805.22
2022-08-29T08:53:45.995Z,101808.38
2022-08-29T08:56:35.662Z,101806.03
2022-08-29T08:59:30.030Z,101793.50
2022-08-29T09:02:08.864Z,101804.78
2022-08-29T09:04:57.861Z,101811.03
2022-08-29T09:07:55.933Z,101812.34
2022-08-29T09:10:42.952Z,101823.53
2022-08-29T09:13:26.263Z,101821.03
2022-08-29T09:15:54.967Z,101820.31
2022-08-29T09:18:30.635Z,101818.84
2022-08-29T09:20:57.474Z,101823.09
2022-08-29T09:23:39.874Z,101829.47
2022-08-29T09:26:06.759Z,101825.25
2022-08-29T09:28:34.925Z,101826.81
2022-08-29T09:31:32.421Z,101814.06
2022-08-29T09:34:11.912Z,101823.66
2022-08-29T09:36:40.025Z,101823.47
2022-08-29T09:39:22.297Z,101821.47
2022-08-29T09:41:54.838Z,101826.00
2022-08-29T09:44:31.575Z,101825.97
2022-08-29T09:47:06.743Z,101830.22
2022-08-29T09:49:33.984Z,101836.59
2022-08-29T09:52:11.330Z,101837.88
2022-08-29T09:54:38.311Z,101841.66
2022-08-29T09:57:07.871Z,101846.78
2022-08-29T09:59:40.724Z,101852.06
2022-08-29T10:02:22.890Z,101843.19
2022-08-29T10:04:52.772Z,101838.53
2022-08-29T10:07:23.170Z,101838.75
2022-08-29T10:10:20.406Z,101842.59
2022-08-29T10:13:09.284Z,101846.41
2022-08-29T10:15:50.920Z,101846.13
2022-08-29T10:18:39.733Z,101848.78
2022-08-29T10:21:24.966Z,101858.97
2022-08-29T10:23:59.702Z,101854.78
2022-08-29T10:26:41.549Z,101857.94
2022-08-29T10:29:17.932Z,101862.41
2022-08-29T10:31:56.764Z,101866.97
2022-08-29T10:34:44.185Z,101862.63
2022-08-29T10:37:47.788Z,101870.94
2022-08-29T10:40:47.279Z,101864.81
2022-08-29T10:43:20.037Z,101876.06
2022-08-29T10:46:11.540Z,101871.84
2022-08-29T10:48:46.582Z,101870.75
2022-08-29T10:51:30.518Z,101873.13
2022-08-29T10:54:05.293Z,101873.25
2022-08-29T10:56:38.593Z,101878.78
2022-08-29T10:59:34.353Z,101877.81
2022-08-29T11:02:24.775Z,101875.19
2022-08-29T11:04:55.147Z,101871.03
2022-08-29T11:07:32.189Z,101874.19
2022-08-29T11:10:05.578Z,101879.63
2022-08-29T11:12:45.270Z,101877.84
2022-08-29T11:15:33.871Z,101883.03
2022-08-29T11:18:23.577Z,101878.66
2022-08-29T11:21:01.121Z,101882.84
2022-08-29T11:23:41.333Z,101894.44
2022-08-29T11:26:40.698Z,101893.47
2022-08-29T11:29:21.382Z,101887.22
2022-08-29T11:32:27.155Z,101888.09
2022-08-29T11:35:32.012Z,101891.09
2022-08-29T11:38:04.434Z,101889.31
2022-08-29T11:40:47.869Z,101892.94
2022-08-29T11:43:18.689Z,101902.81
2022-08-29T11:45:56.111Z,101891.16
2022-08-29T11:48:34.658Z,101897.69
2022-08-29T11:51:29.001Z,101893.63
2022-08-29T11:53:56.007Z,101902.72
2022-08-29T11:56:28.374Z,101911.59
2022-08-29T11:58:57.251Z,101906.78
2022-08-29T12:01:35.977Z,101911.59
2022-08-29T12:04:05.015Z,101909.53
2022-08-29T12:06:38.100Z,101899.97
2022-08-29T12:09:13.325Z,101912.66
2022-08-29T12:11:58.969Z,101910.13
2022-08-29T12:14:44.846Z,101912.47
2022-08-29T12:17:17.419Z,101920.38
2022-08-29T12:19:48.449Z,101915.34
2022-08-29T12:22:52.109Z,101917.03
2022-08-29T12:25:27.666Z,101910.72
2022-08-29T12:28:01.080Z,101924.03
2022-08-29T12:30:31.119Z,101926.50
2022-08-29T12:33:04.159Z,101916.44
2022-08-29T12:35:46.670Z,101914.03
2022-08-29T12:38:34.782Z,101927.72
2022-08-29T12:41:15.049Z,101922.56
2022-08-29T12:43:43.887Z,101914.13
2022-08-29T12:46:24.206Z,101920.88
2022-08-29T12:48:57.794Z,101917.38
2022-08-29T12:51:37.983Z,101920.63
2022-08-29T12:54:05.107Z,101916.03
2022-08-29T12:56:32.581Z,101920.38
2022-08-29T12:59:01.332Z,101924.81
2022-08-29T13:01:32.626Z,101923.03
2022-08-29T13:04:09.954Z,101925.59
2022-08-29T13:06:37.177Z,101931.81
2022-08-29T13:09:06.125Z,101932.91
2022-08-29T13:11:33.539Z,101936.56
2022-08-29T13:14:05.586Z,101933.81
2022-08-29T13:16:32.902Z,101929.41
2022-08-29T13:19:10.812Z,101938.41
2022-08-29T13:21:38.165Z,101936.56
2022-08-29T13:24:11.060Z,101937.44
2022-08-29T13:26:50.455Z,101940.88
2022-08-29T13:29:41.994Z,101935.59
2022-08-29T13:32:18.908Z,101927.19
2022-08-29T13:35:12.973Z,101925.16
2022-08-29T13:37:42.162Z,101934.03
2022-08-29T13:40:53.765Z,101929.75
2022-08-29T13:43:29.480Z,101917.13
2022-08-29T13:46:06.205Z,101921.19
2022-08-29T13:48:33.232Z,101918.22
2022-08-29T13:51:04.732Z,101923.38
2022-08-29T13:53:33.651Z,101925.56
2022-08-29T13:56:01.483Z,101927.94
2022-08-29T13:58:29.564Z,101914.78
2022-08-29T14:00:57.141Z,101924.56
2022-08-29T14:03:24.727Z,101918.06
2022-08-29T14:05:56.364Z,101918.25
2022-08-29T14:08:24.538Z,101912.09
2022-08-29T14:10:51.803Z,101914.16
2022-08-29T14:13:18.379Z,101912.94
2022-08-29T14:15:44.947Z,101917.28
2022-08-29T14:18:11.893Z,101915.03
2022-08-29T14:20:39.098Z,101923.28
2022-08-29T14:23:05.850Z,101913.31
2022-08-29T14:25:32.378Z,101919.28
2022-08-29T14:27:58.883Z,101918.03
2022-08-29T14:30:25.651Z,101924.84
2022-08-29T14:32:52.211Z,101920.09
2022-08-29T14:35:26.824Z,101919.09
2022-08-29T14:37:59.584Z,101916.78
2022-08-29T14:40:26.262Z,101919.31
2022-08-29T14:42:55.737Z,101914.47
2022-08-29T14:45:22.274Z,101908.31
2022-08-29T14:47:48.819Z,101908.13
2022-08-29T14:50:15.722Z,101904.81
2022-08-29T14:52:42.310Z,101904.19
2022-08-29T14:55:09.221Z,101905.81
2022-08-29T14:57:36.071Z,101897.97
2022-08-29T15:00:07.802Z,101894.75
2022-08-29T15:02:34.412Z,101889.00
2022-08-29T15:05:00.939Z,101891.31
2022-08-29T15:07:27.719Z,101891.69
2022-08-29T15:09:54.290Z,101895.69
2022-08-29T15:12:21.721Z,101899.16
2022-08-29T15:14:48.384Z,101890.41
2022-08-29T15:17:15.000Z,101890.59
2022-08-29T15:22:39.114Z,101884.66
2022-08-29T15:25:08.162Z,101883.91
2022-08-29T15:27:40.363Z,101884.34
2022-08-29T15:30:08.867Z,101884.28
2022-08-29T15:32:38.648Z,101883.97
2022-08-29T15:35:22.507Z,101889.00
2022-08-29T15:37:54.974Z,101885.50
2022-08-29T15:40:22.307Z,101892.13
2022-08-29T15:42:49.025Z,101885.38
2022-08-29T15:48:36.216Z,101884.69
2022-08-29T15:51:03.541Z,101883.97
2022-08-29T15:53:30.091Z,101884.66
2022-08-29T15:55:56.672Z,101883.38
2022-08-29T15:58:23.249Z,101879.28
2022-08-29T16:00:49.833Z,101877.53
2022-08-29T16:03:16.660Z,101878.03
2022-08-29T16:05:43.837Z,101882.31
2022-08-29T16:08:16.629Z,101878.84
2022-08-29T16:10:45.847Z,101875.13
2022-08-29T16:13:12.648Z,101877.41
2022-08-29T16:15:39.232Z,101877.56
2022-08-29T16:18:06.770Z,101882.56
2022-08-29T16:20:34.106Z,101878.31
2022-08-29T16:23:01.262Z,101876.50
2022-08-29T16:25:28.758Z,101873.97
2022-08-29T16:27:55.449Z,101877.81
2022-08-29T16:30:22.240Z,101874.19
2022-08-29T16:32:49.924Z,101888.09
2022-08-29T16:35:17.143Z,101899.97
2022-08-29T16:37:45.032Z,101902.44
2022-08-29T16:40:15.341Z,101899.50
2022-08-29T16:42:42.267Z,101895.50
2022-08-29T16:45:22.209Z,101893.22
2022-08-29T16:47:48.769Z,101890.66
2022-08-29T16:50:15.300Z,101902.44
2022-08-29T16:52:41.905Z,101901.50
2022-08-29T16:55:08.997Z,101898.28
2022-08-29T16:57:35.730Z,101907.44
2022-08-29T17:00:04.764Z,101907.47
2022-08-29T17:02:31.385Z,101903.88
2022-08-29T17:04:57.961Z,101899.00
2022-08-29T17:07:32.430Z,101903.31
2022-08-29T17:10:00.702Z,101902.63
2022-08-29T17:12:28.958Z,101912.41
2022-08-29T17:14:56.127Z,101908.69
2022-08-29T17:17:22.625Z,101907.22
2022-08-29T17:19:49.121Z,101909.16
2022-08-29T17:22:15.985Z,101903.88
2022-08-29T17:24:43.927Z,101906.56
2022-08-29T17:27:10.698Z,101896.78
2022-08-29T17:29:42.122Z,101898.50
2022-08-29T17:32:12.110Z,101902.19
2022-08-29T17:34:39.750Z,101897.66
2022-08-29T17:37:07.258Z,101903.06
2022-08-29T17:39:36.900Z,101896.97
2022-08-29T17:42:14.299Z,101902.03
2022-08-29T17:44:41.036Z,101900.28
2022-08-29T17:47:08.192Z,101901.06
2022-08-29T17:49:34.749Z,101901.09
2022-08-29T17:52:01.558Z,101909.16
2022-08-29T17:54:33.203Z,101901.94
2022-08-29T17:57:01.763Z,101906.19
2022-08-29T17:59:31.300Z,101910.00
2022-08-29T18:01:58.711Z,101922.38
2022-08-29T18:04:26.879Z,101919.13
2022-08-29T18:06:55.148Z,101918.25
2022-08-29T18:09:22.896Z,101919.13
2022-08-29T18:11:51.328Z,101911.88
2022-08-29T18:14:20.535Z,101918.16
2022-08-29T18:16:51.824Z,101923.31
2022-08-29T18:19:19.141Z,101919.88
2022-08-29T18:21:45.893Z,101918.16
2022-08-29T18:24:15.195Z,101921.72
2022-08-29T18:26:44.524Z,101921.69
2022-08-29T18:29:11.140Z,101923.50
2022-08-29T18:31:37.944Z,101923.41
2022-08-29T18:34:04.686Z,101934.94
2022-08-29T18:36:34.041Z,101935.00
2022-08-29T18:39:02.397Z,101934.09
2022-08-29T18:41:32.428Z,101935.03
2022-08-29T18:44:02.084Z,101945.66
2022-08-29T18:46:29.005Z,101949.94
2022-08-29T18:48:55.634Z,101953.44
2022-08-29T18:51:22.261Z,101955.22
2022-08-29T18:53:48.840Z,101959.59
2022-08-29T18:56:15.968Z,101957.81
2022-08-29T18:58:44.425Z,101956.13
2022-08-29T19:01:27.640Z,101958.78
2022-08-29T19:03:59.391Z,101972.09
2022-08-29T19:06:27.416Z,101969.41
2022-08-29T19:08:56.629Z,101964.97
2022-08-29T19:11:23.591Z,101974.69
2022-08-29T19:13:52.459Z,101972.88
2022-08-29T19:16:21.018Z,101971.97
2022-08-29T19:18:48.226Z,101979.09
2022-08-29T19:21:14.906Z,101966.69
2022-08-29T19:23:43.992Z,101971.06
2022-08-29T19:26:28.700Z,101970.22
2022-08-29T19:28:59.028Z,101974.59
2022-08-29T19:31:27.788Z,101976.38
2022-08-29T19:33:55.041Z,101969.34
2022-08-29T19:36:21.878Z,101975.47
2022-08-29T19:38:48.493Z,101979.97
2022-08-29T19:41:15.674Z,101975.56
2022-08-29T19:43:42.551Z,101973.00
2022-08-29T19:46:20.794Z,101980.00
2022-08-29T19:48:48.644Z,101968.56
2022-08-29T19:51:19.754Z,101972.03
2022-08-29T19:53:54.396Z,101974.75
2022-08-29T19:56:24.471Z,101965.06
2022-08-29T19:58:53.985Z,101969.47
2022-08-29T20:01:21.230Z,101973.88
2022-08-29T20:03:48.058Z,101971.28
2022-08-29T20:06:14.688Z,101974.75
2022-08-29T20:09:05.291Z,101981.78
2022-08-29T20:11:34.142Z,101975.63
2022-08-29T20:14:14.154Z,101980.06
2022-08-29T20:16:41.963Z,101980.03
2022-08-29T20:19:10.690Z,101978.25
2022-08-29T20:21:37.518Z,101986.13
2022-08-29T20:24:05.118Z,101980.81
2022-08-29T20:26:34.830Z,101980.81
2022-08-29T20:29:04.714Z,101978.19
2022-08-29T20:31:31.567Z,101976.44
2022-08-29T20:33:58.270Z,101979.06
2022-08-29T20:36:44.035Z,101979.91
2022-08-29T20:39:13.284Z,101978.13
2022-08-29T20:41:40.264Z,101992.19
2022-08-29T20:44:07.837Z,101994.84
2022-08-29T20:46:42.592Z,101979.91
2022-08-29T20:49:10.905Z,101986.13
2022-08-29T20:51:39.026Z,101987.81
2022-08-29T20:54:06.693Z,101991.13
2022-08-29T20:56:33.347Z,101993.81
2022-08-29T20:59:00.102Z,102000.88
2022-08-29T21:01:27.827Z,101993.81
2022-08-29T21:04:13.358Z,101992.09
2022-08-29T21:06:40.068Z,101996.34
2022-08-29T21:09:07.766Z,101994.69
2022-08-29T21:11:34.997Z,102003.38
2022-08-29T21:14:02.198Z,102002.53
2022-08-29T21:16:29.715Z,102007.75
2022-08-29T21:18:57.102Z,102003.22
2022-08-29T21:21:25.058Z,102001.53
2022-08-29T21:23:53.686Z,101991.84
2022-08-29T21:26:20.650Z,101995.28
2022-08-29T21:28:47.375Z,101996.09
2022-08-29T21:31:14.141Z,102006.59
2022-08-29T21:33:43.885Z,102011.81
2022-08-29T21:36:15.894Z,102008.16
2022-08-29T21:38:42.470Z,102010.00
2022-08-29T21:41:32.721Z,102014.25
2022-08-29T21:44:02.589Z,102015.94
2022-08-29T22:23:17.999Z,102004.34
2022-08-29T22:25:53.825Z,101996.59
2022-08-29T22:28:20.724Z,101992.88
2022-08-29T22:30:48.708Z,101998.91
2022-08-29T22:33:16.385Z,102002.28
2022-08-29T22:35:43.494Z,101993.66
2022-08-29T22:38:10.005Z,101998.91
2022-08-29T22:40:36.567Z,102001.53
2022-08-29T22:43:03.284Z,101991.66
2022-08-29T22:45:36.939Z,102000.44
2022-08-29T22:48:25.223Z,102001.25
2022-08-29T23:01:38.108Z,101983.22
2022-08-29T23:04:05.470Z,101986.97
2022-08-29T23:06:32.243Z,101985.13
2022-08-29T23:08:58.867Z,101979.91
2022-08-29T23:11:26.649Z,101977.31
2022-08-29T23:13:54.626Z,101986.75
2022-08-29T23:16:22.565Z,101993.66
2022-08-29T23:18:49.229Z,101992.00
2022-08-29T23:21:16.130Z,101995.34
2022-08-29T23:23:53.458Z,101988.22
